Αναφορές METAR Αεροδρομίων

 

LGTS - THESSALONIKI - GREECE
Ενημερώθηκε: 22/04/2018 17:20
Αίθριος
Αίθριος
 Ανεμος από Ν
Ανεμος: Ν 19 km/h
Θερμοκρασία: 25°C
Σημείο Δρόσου: 4°C
Υγρασία: 26%
Βαρόμετρο: 1015 hPa
Περίληψη: Αίθριος
Visibility: greater than 10 km
2018/04/22 14:20 LGTS 221420Z 18010KT CAVOK 25/04 Q1015 NOSIG
LGLR - LARTISA - GREECE
Ενημερώθηκε: 22/04/2018 16:50
Αίθριος
Αίθριος
 Ανεμος από calm
Ανεμος: Απνοια
Θερμοκρασία: 28°C
Σημείο Δρόσου: 5°C
Υγρασία: 23%
Βαρόμετρο: 1015 hPa
Περίληψη: Αίθριος
Visibility: greater than 10 km
2018/04/22 13:50 LGLR 221350Z 00000KT CAVOK 28/05 Q1015 BLU
 
LGKZ - KOZANI - GREECE
Ενημερώθηκε: 22/04/2018 16:50
Αίθριος
Αίθριος
 Ανεμος από calm
Ανεμος: Απνοια
Θερμοκρασία: 25°C
Σημείο Δρόσου: 3°C
Υγρασία: 24%
Βαρόμετρο: 1016 hPa
Περίληψη: Αίθριος
Visibility: greater than 10 km
2018/04/22 13:50 LGKZ 221350Z 00000KT CAVOK 25/03 Q1016
LGKV - KAVALA - GREECE
Ενημερώθηκε: 22/04/2018 17:20
Αίθριος
Αίθριος
 Ανεμος από ΝΔ
Ανεμος: ΝΔ 7 km/h
Θερμοκρασία: 22°C
Σημείο Δρόσου: 10°C
Υγρασία: 47%
Βαρόμετρο: 1015 hPa
Περίληψη: Αίθριος
Visibility: greater than 10 km
2018/04/22 14:20 LGKV 221420Z 23004KT CAVOK 22/10 Q1015
 
LGIO - IOANNINA - GREECE
Ενημερώθηκε: 22/04/2018 14:50
NOT Current
Αραιές Νεφώσεις
Αραιές Νεφώσεις
 Ανεμος από varies
Ανεμος: varies 0 km/h
Θερμοκρασία: 24°C
Σημείο Δρόσου: 7°C
Υγρασία: 34%
Βαρόμετρο: 1017 hPa
Clouds: Αραιές Νεφώσεις
Visibility: 10 km
Cloud details: Αραιές Νεφώσεις 1067 m
2018/04/22 11:50 LGIO 221150Z /////KT 9999 FEW035 24/07 Q1017
LGBL - BOLOS - GREECE
Ενημερώθηκε: 22/04/2018 16:50
Αίθριος
Αίθριος
 Ανεμος από Α
Ανεμος: Α 13 km/h
Θερμοκρασία: 25°C
Σημείο Δρόσου: 7°C
Υγρασία: 32%
Βαρόμετρο: 1015 hPa
Περίληψη: Αίθριος
Visibility: greater than 10 km
2018/04/22 13:50 LGBL 221350Z 08007KT CAVOK 25/07 Q1015
 
LGMT - MITILINI - GREECE
Ενημερώθηκε: 22/04/2018 17:20
Αίθριος
Αίθριος
 Ανεμος από varies
Ανεμος: varies 6 km/h
Θερμοκρασία: 23°C
Σημείο Δρόσου: 10°C
Υγρασία: 44%
Βαρόμετρο: 1016 hPa
Περίληψη: Αίθριος
Visibility: greater than 10 km
2018/04/22 14:20 LGMT 221420Z VRB03KT CAVOK 23/10 Q1016
LGAV - ATHENS - GREECE
Ενημερώθηκε: 22/04/2018 17:20
Αίθριος
Αίθριος
 Ανεμος από ΑΝΑ
Ανεμος: ΑΝΑ 9 km/h
Θερμοκρασία: 23°C
Σημείο Δρόσου: 3°C
Υγρασία: 27%
Βαρόμετρο: 1016 hPa
Περίληψη: Αίθριος
Visibility: greater than 10 km
2018/04/22 14:20 LGAV 221420Z 12005KT 070V160 CAVOK 23/03 Q1016 NOSIG
 
LGRP - RODOS - GREECE
Ενημερώθηκε: 22/04/2018 17:20
Αίθριος
Αίθριος
 Ανεμος από ΔΝΔ
Ανεμος: ΔΝΔ 26 km/h
Θερμοκρασία: 21°C
Σημείο Δρόσου: 10°C
Υγρασία: 50%
Βαρόμετρο: 1013 hPa
Περίληψη: Αίθριος
Visibility: greater than 10 km
2018/04/22 14:20 LGRP 221420Z 25014KT CAVOK 21/10 Q1013 NOSIG
LGIR - HRAKLIO/KRITI - GREECE
Ενημερώθηκε: 22/04/2018 17:20
Αραιές Νεφώσεις
Αραιές Νεφώσεις
 Ανεμος από ΒΔ
Ανεμος: ΒΔ 20 km/h
Θερμοκρασία: 20°C
Σημείο Δρόσου: 12°C
Υγρασία: 60%
Βαρόμετρο: 1016 hPa
Clouds: Αραιές Νεφώσεις
Visibility: 10 km
Cloud details: Αραιές Νεφώσεις 762 m
2018/04/22 14:20 LGIR 221420Z 32011KT 9999 FEW025 20/12 Q1016 NOSIG
 
LGMK - MIKONOS - GREECE
Ενημερώθηκε: 22/04/2018 17:20
Αίθριος
Αίθριος
 Ανεμος από Β
Ανεμος: Β 30 km/h
Θερμοκρασία: 19°C
Σημείο Δρόσου: 9°C
Υγρασία: 52%
Βαρόμετρο: 1015 hPa
Περίληψη: Αίθριος
Visibility: greater than 10 km
2018/04/22 14:20 LGMK 221420Z 35016KT CAVOK 19/09 Q1015
LGKR - KERKIRA - GREECE
Ενημερώθηκε: 22/04/2018 17:20
Αραιές Νεφώσεις
Αραιές Νεφώσεις
 Ανεμος από ΔΝΔ
Ανεμος: ΔΝΔ 15 km/h
Θερμοκρασία: 22°C
Σημείο Δρόσου: 14°C
Υγρασία: 61%
Βαρόμετρο: 1018 hPa
Clouds: Αραιές Νεφώσεις
Visibility: 10 km
Cloud details: Αραιές Νεφώσεις 183 m
2018/04/22 14:20 LGKR 221420Z 25008KT 9999 FEW006 22/14 Q1018 NOSIG